sensor_id;sensor_type;location;lat;lon;timestamp;pressure;altitude;pressure_sealevel;temperature;humidity
2268;BME280;11052;43.338;25.502;2023-02-03T00:00:26;100895.50;;;2.22;100.00
2268;BME280;11052;43.338;25.502;2023-02-03T00:02:55;100897.25;;;2.26;100.00
2268;BME280;11052;43.338;25.502;2023-02-03T00:05:23;100908.19;;;2.16;100.00
2268;BME280;11052;43.338;25.502;2023-02-03T00:07:51;100915.13;;;2.23;100.00
2268;BME280;11052;43.338;25.502;2023-02-03T00:10:19;100915.09;;;2.22;100.00
2268;BME280;11052;43.338;25.502;2023-02-03T00:12:46;100921.81;;;2.15;100.00
2268;BME280;11052;43.338;25.502;2023-02-03T00:15:14;100915.94;;;2.22;100.00
2268;BME280;11052;43.338;25.502;2023-02-03T00:17:41;100917.56;;;2.16;100.00
2268;BME280;11052;43.338;25.502;2023-02-03T00:20:10;100911.69;;;2.21;100.00
2268;BME280;11052;43.338;25.502;2023-02-03T00:22:39;100911.72;;;2.24;100.00
2268;BME280;11052;43.338;25.502;2023-02-03T00:25:06;100911.63;;;2.18;100.00
2268;BME280;11052;43.338;25.502;2023-02-03T00:27:33;100908.38;;;2.30;100.00
2268;BME280;11052;43.338;25.502;2023-02-03T00:30:00;100911.75;;;2.27;100.00
2268;BME280;11052;43.338;25.502;2023-02-03T00:32:28;100911.81;;;2.30;100.00
2268;BME280;11052;43.338;25.502;2023-02-03T00:34:55;100906.66;;;2.27;100.00
2268;BME280;11052;43.338;25.502;2023-02-03T00:37:22;100916.13;;;2.36;100.00
2268;BME280;11052;43.338;25.502;2023-02-03T00:39:51;100905.75;;;2.25;100.00
2268;BME280;11052;43.338;25.502;2023-02-03T00:42:18;100901.72;;;2.43;100.00
2268;BME280;11052;43.338;25.502;2023-02-03T00:44:45;100905.78;;;2.27;100.00
2268;BME280;11052;43.338;25.502;2023-02-03T00:47:12;100903.34;;;2.35;100.00
2268;BME280;11052;43.338;25.502;2023-02-03T00:49:39;100900.72;;;2.32;100.00
2268;BME280;11052;43.338;25.502;2023-02-03T00:52:06;100900.78;;;2.36;100.00
2268;BME280;11052;43.338;25.502;2023-02-03T00:54:34;100900.00;;;2.42;100.00
2268;BME280;11052;43.338;25.502;2023-02-03T00:57:02;100905.97;;;2.41;100.00
2268;BME280;11052;43.338;25.502;2023-02-03T00:59:29;100906.81;;;2.40;100.00
2268;BME280;11052;43.338;25.502;2023-02-03T01:01:56;100904.22;;;2.37;100.00
2268;BME280;11052;43.338;25.502;2023-02-03T01:04:24;100912.03;;;2.47;100.00
2268;BME280;11052;43.338;25.502;2023-02-03T01:06:51;100910.25;;;2.43;100.00
2268;BME280;11052;43.338;25.502;2023-02-03T01:09:22;100911.91;;;2.40;100.00
2268;BME280;11052;43.338;25.502;2023-02-03T01:11:49;100917.91;;;2.42;100.00
2268;BME280;11052;43.338;25.502;2023-02-03T01:14:17;100919.69;;;2.46;100.00
2268;BME280;11052;43.338;25.502;2023-02-03T01:16:44;100923.06;;;2.43;100.00
2268;BME280;11052;43.338;25.502;2023-02-03T01:19:11;100919.75;;;2.52;100.00
2268;BME280;11052;43.338;25.502;2023-02-03T01:21:39;100930.84;;;2.51;100.00
2268;BME280;11052;43.338;25.502;2023-02-03T01:24:06;100929.00;;;2.41;100.00
2268;BME280;11052;43.338;25.502;2023-02-03T01:26:34;100926.47;;;2.44;100.00
2268;BME280;11052;43.338;25.502;2023-02-03T01:29:01;100922.09;;;2.35;100.00
2268;BME280;11052;43.338;25.502;2023-02-03T01:31:31;100916.13;;;2.36;100.00
2268;BME280;11052;43.338;25.502;2023-02-03T01:34:00;100908.44;;;2.35;100.00
2268;BME280;11052;43.338;25.502;2023-02-03T01:36:28;100913.56;;;2.35;100.00
2268;BME280;11052;43.338;25.502;2023-02-03T01:38:56;100916.13;;;2.35;100.00
2268;BME280;11052;43.338;25.502;2023-02-03T01:41:25;100918.69;;;2.35;100.00
2268;BME280;11052;43.338;25.502;2023-02-03T01:43:54;100922.91;;;2.33;100.00
2268;BME280;11052;43.338;25.502;2023-02-03T01:46:26;100923.16;;;2.52;100.00
2268;BME280;11052;43.338;25.502;2023-02-03T01:49:03;100922.28;;;2.49;100.00
2268;BME280;11052;43.338;25.502;2023-02-03T01:51:34;100928.34;;;2.55;100.00
2268;BME280;11052;43.338;25.502;2023-02-03T01:54:02;100929.28;;;2.65;100.00
2268;BME280;11052;43.338;25.502;2023-02-03T01:56:35;100931.88;;;2.68;100.00
2268;BME280;11052;43.338;25.502;2023-02-03T01:59:05;100934.53;;;2.77;100.00
2268;BME280;11052;43.338;25.502;2023-02-03T02:01:32;100929.41;;;2.77;100.00
2268;BME280;11052;43.338;25.502;2023-02-03T02:04:03;100925.09;;;2.73;100.00
2268;BME280;11052;43.338;25.502;2023-02-03T02:06:31;100925.97;;;2.75;100.00
2268;BME280;11052;43.338;25.502;2023-02-03T02:08:58;100915.88;;;2.86;100.00
2268;BME280;11052;43.338;25.502;2023-02-03T02:11:27;100917.47;;;2.78;100.00
2268;BME280;11052;43.338;25.502;2023-02-03T02:13:57;100926.06;;;2.81;100.00
2268;BME280;11052;43.338;25.502;2023-02-03T02:16:34;100926.13;;;2.87;100.00
2268;BME280;11052;43.338;25.502;2023-02-03T02:19:27;100923.53;;;2.84;100.00
2268;BME280;11052;43.338;25.502;2023-02-03T02:22:05;100920.94;;;2.83;100.00
2268;BME280;11052;43.338;25.502;2023-02-03T02:24:57;100917.56;;;2.85;100.00
2268;BME280;11052;43.338;25.502;2023-02-03T02:27:56;100917.47;;;2.78;100.00
2268;BME280;11052;43.338;25.502;2023-02-03T02:30:55;100914.06;;;2.79;100.00
2268;BME280;11052;43.338;25.502;2023-02-03T02:33:35;100918.22;;;2.69;100.00
2268;BME280;11052;43.338;25.502;2023-02-03T02:36:12;100917.34;;;2.67;100.00
2268;BME280;11052;43.338;25.502;2023-02-03T02:38:48;100917.34;;;2.66;100.00
2268;BME280;11052;43.338;25.502;2023-02-03T02:41:25;100913.88;;;2.62;100.00
2268;BME280;11052;43.338;25.502;2023-02-03T02:43:59;100920.75;;;2.66;100.00
2268;BME280;11052;43.338;25.502;2023-02-03T02:46:30;100922.41;;;2.62;100.00
2268;BME280;11052;43.338;25.502;2023-02-03T02:49:03;100927.63;;;2.69;100.00
2268;BME280;11052;43.338;25.502;2023-02-03T02:51:33;100926.78;;;2.71;100.00
2268;BME280;11052;43.338;25.502;2023-02-03T02:54:04;100928.56;;;2.77;100.00
2268;BME280;11052;43.338;25.502;2023-02-03T02:56:35;100939.63;;;2.74;100.00
2268;BME280;11052;43.338;25.502;2023-02-03T02:59:05;100937.94;;;2.76;100.00
2268;BME280;11052;43.338;25.502;2023-02-03T03:01:33;100939.59;;;2.73;100.00
2268;BME280;11052;43.338;25.502;2023-02-03T03:04:04;100941.41;;;2.80;100.00
2268;BME280;11052;43.338;25.502;2023-02-03T03:06:33;100946.44;;;2.74;100.00
2268;BME280;11052;43.338;25.502;2023-02-03T03:09:04;100954.19;;;2.80;100.00
2268;BME280;11052;43.338;25.502;2023-02-03T03:11:37;100957.69;;;2.86;100.00
2268;BME280;11052;43.338;25.502;2023-02-03T03:14:07;100955.72;;;2.64;100.00
2268;BME280;11052;43.338;25.502;2023-02-03T03:16:37;100962.63;;;2.71;100.00
2268;BME280;11052;43.338;25.502;2023-02-03T03:19:08;100954.03;;;2.68;100.00
2268;BME280;11052;43.338;25.502;2023-02-03T03:21:42;100962.59;;;2.68;100.00
2268;BME280;11052;43.338;25.502;2023-02-03T03:24:14;100964.41;;;2.77;100.00
2268;BME280;11052;43.338;25.502;2023-02-03T03:26:48;100972.81;;;2.67;100.00
2268;BME280;11052;43.338;25.502;2023-02-03T03:29:20;100965.94;;;2.64;100.00
2268;BME280;11052;43.338;25.502;2023-02-03T03:31:48;100969.41;;;2.69;100.00
2268;BME280;11052;43.338;25.502;2023-02-03T03:34:17;100980.50;;;2.68;100.00
2268;BME280;11052;43.338;25.502;2023-02-03T03:36:47;100977.13;;;2.71;100.00
2268;BME280;11052;43.338;25.502;2023-02-03T03:39:21;100970.22;;;2.65;100.00
2268;BME280;11052;43.338;25.502;2023-02-03T03:41:56;100975.28;;;2.60;100.00
2268;BME280;11052;43.338;25.502;2023-02-03T03:44:29;100973.53;;;2.55;100.00
2268;BME280;11052;43.338;25.502;2023-02-03T03:47:04;100979.50;;;2.55;100.00
2268;BME280;11052;43.338;25.502;2023-02-03T03:49:35;100982.06;;;2.55;100.00
2268;BME280;11052;43.338;25.502;2023-02-03T03:52:05;100987.88;;;2.44;100.00
2268;BME280;11052;43.338;25.502;2023-02-03T03:54:35;100988.63;;;2.37;100.00
2268;BME280;11052;43.338;25.502;2023-02-03T03:57:08;101001.47;;;2.41;100.00
2268;BME280;11052;43.338;25.502;2023-02-03T03:59:42;101003.88;;;2.30;100.00
2268;BME280;11052;43.338;25.502;2023-02-03T04:02:12;101003.97;;;2.37;100.00
2268;BME280;11052;43.338;25.502;2023-02-03T04:04:42;101019.34;;;2.38;100.00
2268;BME280;11052;43.338;25.502;2023-02-03T04:07:12;101014.13;;;2.32;100.00
2268;BME280;11052;43.338;25.502;2023-02-03T04:09:39;101017.72;;;2.43;100.00
2268;BME280;11052;43.338;25.502;2023-02-03T04:12:14;101024.50;;;2.40;100.00
2268;BME280;11052;43.338;25.502;2023-02-03T04:14:42;101026.19;;;2.39;100.00
2268;BME280;11052;43.338;25.502;2023-02-03T04:17:09;101019.34;;;2.38;100.00
2268;BME280;11052;43.338;25.502;2023-02-03T04:19:36;101021.22;;;2.50;100.00
2268;BME280;11052;43.338;25.502;2023-02-03T04:22:05;101028.03;;;2.49;100.00
2268;BME280;11052;43.338;25.502;2023-02-03T04:24:32;101035.69;;;2.48;100.00
2268;BME280;11052;43.338;25.502;2023-02-03T04:26:59;101040.84;;;2.49;100.00
2268;BME280;11052;43.338;25.502;2023-02-03T04:29:26;101039.22;;;2.56;100.00
2268;BME280;11052;43.338;25.502;2023-02-03T04:31:53;101030.66;;;2.52;100.00
2268;BME280;11052;43.338;25.502;2023-02-03T04:34:20;101047.75;;;2.55;100.00
2268;BME280;11052;43.338;25.502;2023-02-03T04:36:47;101042.56;;;2.52;100.00
2268;BME280;11052;43.338;25.502;2023-02-03T04:39:16;101045.22;;;2.56;100.00
2268;BME280;11052;43.338;25.502;2023-02-03T04:41:43;101041.84;;;2.59;100.00
2268;BME280;11052;43.338;25.502;2023-02-03T04:44:10;101047.81;;;2.61;100.00
2268;BME280;11052;43.338;25.502;2023-02-03T04:46:37;101045.31;;;2.66;100.00
2268;BME280;11052;43.338;25.502;2023-02-03T04:49:04;101053.09;;;2.73;100.00
2268;BME280;11052;43.338;25.502;2023-02-03T04:51:31;101052.16;;;2.67;100.00
2268;BME280;11052;43.338;25.502;2023-02-03T04:53:59;101051.34;;;2.71;100.00
2268;BME280;11052;43.338;25.502;2023-02-03T04:56:27;101053.16;;;2.78;100.00
2268;BME280;11052;43.338;25.502;2023-02-03T04:58:54;101056.50;;;2.72;100.00
2268;BME280;11052;43.338;25.502;2023-02-03T05:01:22;101048.91;;;2.80;100.00
2268;BME280;11052;43.338;25.502;2023-02-03T05:03:50;101058.38;;;2.84;100.00
2268;BME280;11052;43.338;25.502;2023-02-03T05:06:21;101054.13;;;2.86;100.00
2268;BME280;11052;43.338;25.502;2023-02-03T05:08:48;101062.53;;;2.77;100.00
2268;BME280;11052;43.338;25.502;2023-02-03T05:11:16;101065.97;;;2.79;100.00
2268;BME280;11052;43.338;25.502;2023-02-03T05:13:44;101069.44;;;2.83;100.00
2268;BME280;11052;43.338;25.502;2023-02-03T05:16:11;101076.25;;;2.82;100.00
2268;BME280;11052;43.338;25.502;2023-02-03T05:18:39;101070.22;;;2.77;100.00
2268;BME280;11052;43.338;25.502;2023-02-03T05:21:06;101086.41;;;2.75;100.00
2268;BME280;11052;43.338;25.502;2023-02-03T05:23:33;101085.75;;;2.89;100.00
2268;BME280;11052;43.338;25.502;2023-02-03T05:26:00;101095.16;;;2.90;100.00
2268;BME280;11052;43.338;25.502;2023-02-03T05:28:28;101093.44;;;2.89;100.00
2268;BME280;11052;43.338;25.502;2023-02-03T05:30:58;101103.66;;;2.88;100.00
2268;BME280;11052;43.338;25.502;2023-02-03T05:33:26;101096.75;;;2.84;100.00
2268;BME280;11052;43.338;25.502;2023-02-03T05:35:53;101099.34;;;2.85;100.00
2268;BME280;11052;43.338;25.502;2023-02-03T05:38:20;101106.16;;;2.83;100.00
2268;BME280;11052;43.338;25.502;2023-02-03T05:40:47;101107.81;;;2.80;100.00
2268;BME280;11052;43.338;25.502;2023-02-03T05:43:35;101108.63;;;2.79;100.00
2268;BME280;11052;43.338;25.502;2023-02-03T05:46:04;101121.44;;;2.79;100.00
2268;BME280;11052;43.338;25.502;2023-02-03T05:48:32;101117.84;;;2.66;100.00
2268;BME280;11052;43.338;25.502;2023-02-03T05:51:00;101120.63;;;2.81;100.00
2268;BME280;11052;43.338;25.502;2023-02-03T05:53:27;101136.03;;;2.84;100.00
2268;BME280;11052;43.338;25.502;2023-02-03T05:55:54;101121.56;;;2.86;100.00
2268;BME280;11052;43.338;25.502;2023-02-03T05:58:21;101131.75;;;2.83;100.00
2268;BME280;11052;43.338;25.502;2023-02-03T06:00:48;101126.75;;;2.92;100.00
2268;BME280;11052;43.338;25.502;2023-02-03T06:03:17;101128.41;;;2.87;100.00
2268;BME280;11052;43.338;25.502;2023-02-03T06:05:44;101138.69;;;2.92;100.00
2268;BME280;11052;43.338;25.502;2023-02-03T06:08:11;101135.38;;;2.97;100.00
2268;BME280;11052;43.338;25.502;2023-02-03T06:10:38;101143.97;;;3.03;100.00
2268;BME280;11052;43.338;25.502;2023-02-03T06:13:09;101162.78;;;3.05;100.00
2268;BME280;11052;43.338;25.502;2023-02-03T06:15:38;101147.38;;;3.02;100.00
2268;BME280;11052;43.338;25.502;2023-02-03T06:18:06;101160.22;;;3.03;100.00
2268;BME280;11052;43.338;25.502;2023-02-03T06:20:35;101155.94;;;3.04;100.00
2268;BME280;11052;43.338;25.502;2023-02-03T06:23:02;101159.47;;;3.10;100.00
2268;BME280;11052;43.338;25.502;2023-02-03T06:25:29;101164.47;;;3.03;100.00
2268;BME280;11052;43.338;25.502;2023-02-03T06:27:57;101158.47;;;3.02;100.00
2268;BME280;11052;43.338;25.502;2023-02-03T06:30:24;101163.44;;;2.91;100.00
2268;BME280;11052;43.338;25.502;2023-02-03T06:32:51;101160.13;;;2.99;100.00
2268;BME280;11052;43.338;25.502;2023-02-03T06:35:18;101161.81;;;2.96;100.00
2268;BME280;11052;43.338;25.502;2023-02-03T06:37:47;101154.94;;;2.94;100.00
2268;BME280;11052;43.338;25.502;2023-02-03T06:40:14;101161.84;;;2.98;100.00
2268;BME280;11052;43.338;25.502;2023-02-03T06:42:44;101161.00;;;2.99;100.00
2268;BME280;11052;43.338;25.502;2023-02-03T06:45:12;101165.38;;;3.06;100.00
2268;BME280;11052;43.338;25.502;2023-02-03T06:47:39;101168.03;;;3.14;100.00
2268;BME280;11052;43.338;25.502;2023-02-03T06:50:08;101179.44;;;3.34;100.00
2268;BME280;11052;43.338;25.502;2023-02-03T06:52:35;101181.44;;;3.58;100.00
2268;BME280;11052;43.338;25.502;2023-02-03T06:55:05;101180.81;;;3.77;100.00
2268;BME280;11052;43.338;25.502;2023-02-03T06:57:32;101179.84;;;3.68;100.00
2268;BME280;11052;43.338;25.502;2023-02-03T06:59:59;101179.66;;;3.54;100.00
2268;BME280;11052;43.338;25.502;2023-02-03T07:02:26;101179.66;;;3.54;100.00
2268;BME280;11052;43.338;25.502;2023-02-03T07:04:54;101177.00;;;3.43;100.00
2268;BME280;11052;43.338;25.502;2023-02-03T07:07:21;101184.63;;;3.39;100.00
2268;BME280;11052;43.338;25.502;2023-02-03T07:09:48;101189.69;;;3.34;100.00
2268;BME280;11052;43.338;25.502;2023-02-03T07:12:16;101180.34;;;3.39;100.00
2268;BME280;11052;43.338;25.502;2023-02-03T07:14:43;101194.78;;;3.33;100.00
2268;BME280;11052;43.338;25.502;2023-02-03T07:17:10;101191.56;;;3.46;100.00
2268;BME280;11052;43.338;25.502;2023-02-03T07:19:38;101199.44;;;3.64;100.00
2268;BME280;11052;43.338;25.502;2023-02-03T07:22:05;101190.41;;;3.95;100.00
2268;BME280;11052;43.338;25.502;2023-02-03T07:24:32;101208.41;;;3.98;100.00
2268;BME280;11052;43.338;25.502;2023-02-03T07:26:59;101213.97;;;4.42;100.00
2268;BME280;11052;43.338;25.502;2023-02-03T07:29:28;101200.53;;;4.68;100.00
2268;BME280;11052;43.338;25.502;2023-02-03T07:31:55;101204.19;;;4.99;100.00
2268;BME280;11052;43.338;25.502;2023-02-03T07:34:22;101193.91;;;4.96;100.00
2268;BME280;11052;43.338;25.502;2023-02-03T07:36:49;101202.63;;;5.19;100.00
2268;BME280;11052;43.338;25.502;2023-02-03T07:39:16;101206.06;;;5.24;100.00
2268;BME280;11052;43.338;25.502;2023-02-03T07:41:43;101201.88;;;5.40;100.00
2268;BME280;11052;43.338;25.502;2023-02-03T07:44:10;101200.22;;;5.54;100.00
2268;BME280;11052;43.338;25.502;2023-02-03T07:46:39;101212.28;;;5.61;100.00
2268;BME280;11052;43.338;25.502;2023-02-03T07:49:09;101214.06;;;5.80;100.00
2268;BME280;11052;43.338;25.502;2023-02-03T07:51:36;101209.91;;;6.13;100.00
2268;BME280;11052;43.338;25.502;2023-02-03T07:54:04;101220.25;;;6.28;100.00
2268;BME280;11052;43.338;25.502;2023-02-03T07:56:31;101222.84;;;6.45;100.00
2268;BME280;11052;43.338;25.502;2023-02-03T07:58:59;101217.72;;;6.69;100.00
2268;BME280;11052;43.338;25.502;2023-02-03T08:01:26;101217.72;;;6.60;100.00
2268;BME280;11052;43.338;25.502;2023-02-03T08:03:55;101221.16;;;6.70;100.00
2268;BME280;11052;43.338;25.502;2023-02-03T08:06:22;101232.34;;;6.73;100.00
2268;BME280;11052;43.338;25.502;2023-02-03T08:08:49;101230.63;;;6.72;100.00
2268;BME280;11052;43.338;25.502;2023-02-03T08:11:18;101238.34;;;6.75;100.00
2268;BME280;11052;43.338;25.502;2023-02-03T08:13:45;101235.78;;;6.75;100.00
2268;BME280;11052;43.338;25.502;2023-02-03T08:16:12;101234.91;;;6.73;100.00
2268;BME280;11052;43.338;25.502;2023-02-03T08:18:39;101229.75;;;6.85;100.00
2268;BME280;11052;43.338;25.502;2023-02-03T08:21:08;101240.03;;;7.05;100.00
2268;BME280;11052;43.338;25.502;2023-02-03T08:23:35;101225.41;;;7.15;100.00
2268;BME280;11052;43.338;25.502;2023-02-03T08:26:02;101234.88;;;7.28;100.00
2268;BME280;11052;43.338;25.502;2023-02-03T08:28:29;101230.53;;;7.36;100.00
2268;BME280;11052;43.338;25.502;2023-02-03T08:30:56;101242.59;;;7.31;100.00
2268;BME280;11052;43.338;25.502;2023-02-03T08:33:24;101247.75;;;7.34;100.00
2268;BME280;11052;43.338;25.502;2023-02-03T08:35:51;101240.00;;;7.46;100.00
2268;BME280;11052;43.338;25.502;2023-02-03T08:38:19;101241.72;;;7.34;100.00
2268;BME280;11052;43.338;25.502;2023-02-03T08:40:47;101239.16;;;7.26;100.00
2268;BME280;11052;43.338;25.502;2023-02-03T08:43:14;101247.75;;;7.37;100.00
2268;BME280;11052;43.338;25.502;2023-02-03T08:45:41;101253.75;;;7.50;100.00
2268;BME280;11052;43.338;25.502;2023-02-03T08:48:08;101247.66;;;7.78;100.00
2268;BME280;11052;43.338;25.502;2023-02-03T08:50:35;101255.38;;;7.77;100.00
2268;BME280;11052;43.338;25.502;2023-02-03T08:53:03;101257.00;;;8.01;100.00
2268;BME280;11052;43.338;25.502;2023-02-03T08:55:31;101251.72;;;8.33;100.00
2268;BME280;11052;43.338;25.502;2023-02-03T08:57:58;101259.38;;;8.46;100.00
2268;BME280;11052;43.338;25.502;2023-02-03T09:00:25;101267.94;;;8.58;100.00
2268;BME280;11052;43.338;25.502;2023-02-03T09:02:53;101273.31;;;8.07;100.00
2268;BME280;11052;43.338;25.502;2023-02-03T09:05:20;101280.38;;;7.56;100.00
2268;BME280;11052;43.338;25.502;2023-02-03T09:07:47;101283.88;;;7.19;100.00
2268;BME280;11052;43.338;25.502;2023-02-03T09:10:14;101290.75;;;7.12;100.00
2268;BME280;11052;43.338;25.502;2023-02-03T09:12:43;101297.63;;;6.84;100.00
2268;BME280;11052;43.338;25.502;2023-02-03T09:15:10;101294.19;;;6.78;100.00
2268;BME280;11052;43.338;25.502;2023-02-03T09:17:37;101289.88;;;6.66;100.00
2268;BME280;11052;43.338;25.502;2023-02-03T09:20:05;101296.72;;;6.63;100.00
2268;BME280;11052;43.338;25.502;2023-02-03T09:22:33;101291.59;;;6.72;100.00
2268;BME280;11052;43.338;25.502;2023-02-03T09:25:00;101288.16;;;6.99;100.00
2268;BME280;11052;43.338;25.502;2023-02-03T09:27:27;101273.53;;;7.37;100.00
2268;BME280;11052;43.338;25.502;2023-02-03T09:29:56;101282.13;;;7.39;100.00
2268;BME280;11052;43.338;25.502;2023-02-03T09:32:23;101281.25;;;7.46;100.00
2268;BME280;11052;43.338;25.502;2023-02-03T09:34:50;101276.00;;;7.83;100.00
2268;BME280;11052;43.338;25.502;2023-02-03T09:37:17;101274.22;;;7.99;100.00
2268;BME280;11052;43.338;25.502;2023-02-03T09:39:45;101278.44;;;8.16;100.00
2268;BME280;11052;43.338;25.502;2023-02-03T09:42:29;101273.31;;;8.07;100.00
2268;BME280;11052;43.338;25.502;2023-02-03T09:45:09;101283.66;;;8.09;100.00
2268;BME280;11052;43.338;25.502;2023-02-03T09:47:42;101281.97;;;7.94;100.00
2268;BME280;11052;43.338;25.502;2023-02-03T09:50:12;101277.75;;;7.78;100.00
2268;BME280;11052;43.338;25.502;2023-02-03T09:52:41;101280.38;;;7.66;100.00
2268;BME280;11052;43.338;25.502;2023-02-03T09:55:25;101269.19;;;7.64;100.00
2268;BME280;11052;43.338;25.502;2023-02-03T09:57:55;101263.19;;;7.62;100.00
2268;BME280;11052;43.338;25.502;2023-02-03T10:00:33;101270.94;;;7.48;100.00
2268;BME280;11052;43.338;25.502;2023-02-03T10:03:06;101276.97;;;7.42;100.00
2268;BME280;11052;43.338;25.502;2023-02-03T10:08:58;101276.13;;;7.39;100.00
2268;BME280;11052;43.338;25.502;2023-02-03T10:11:37;101264.94;;;7.26;100.00
2268;BME280;11052;43.338;25.502;2023-02-03T10:14:18;101265.75;;;7.62;100.00
2268;BME280;11052;43.338;25.502;2023-02-03T10:17:00;101262.13;;;8.11;100.00
2268;BME280;11052;43.338;25.502;2023-02-03T10:19:37;101258.59;;;8.28;100.00
2268;BME280;11052;43.338;25.502;2023-02-03T10:22:11;101260.13;;;8.64;100.00
2268;BME280;11052;43.338;25.502;2023-02-03T10:24:42;101248.81;;;8.78;100.00
2268;BME280;11052;43.338;25.502;2023-02-03T10:27:15;101236.56;;;8.99;100.00
2268;BME280;11052;43.338;25.502;2023-02-03T10:29:43;101246.06;;;8.97;100.00
2268;BME280;11052;43.338;25.502;2023-02-03T10:32:12;101236.66;;;8.91;100.00
2268;BME280;11052;43.338;25.502;2023-02-03T10:34:43;101241.91;;;8.77;100.00
2268;BME280;11052;43.338;25.502;2023-02-03T10:37:17;101236.69;;;8.83;100.00
2268;BME280;11052;43.338;25.502;2023-02-03T10:39:50;101240.84;;;9.03;100.00
2268;BME280;11052;43.338;25.502;2023-02-03T10:42:18;101236.38;;;9.23;100.00
2268;BME280;11052;43.338;25.502;2023-02-03T10:44:52;101231.22;;;9.18;100.00
2268;BME280;11052;43.338;25.502;2023-02-03T10:47:28;101226.09;;;9.15;100.00
2268;BME280;11052;43.338;25.502;2023-02-03T10:50:03;101231.19;;;9.23;100.00
2268;BME280;11052;43.338;25.502;2023-02-03T10:52:34;101228.53;;;9.29;100.00
2268;BME280;11052;43.338;25.502;2023-02-03T10:55:05;101231.06;;;9.35;100.00
2268;BME280;11052;43.338;25.502;2023-02-03T10:57:34;101219.78;;;9.44;100.00
2268;BME280;11052;43.338;25.502;2023-02-03T11:00:07;101224.09;;;9.43;100.00
2268;BME280;11052;43.338;25.502;2023-02-03T11:02:54;101222.28;;;9.50;100.00
2268;BME280;11052;43.338;25.502;2023-02-03T11:05:22;101227.38;;;9.54;100.00
2268;BME280;11052;43.338;25.502;2023-02-03T11:07:51;101219.00;;;9.36;100.00
2268;BME280;11052;43.338;25.502;2023-02-03T11:10:30;101202.69;;;9.29;100.00
2268;BME280;11052;43.338;25.502;2023-02-03T11:13:11;101202.75;;;9.22;100.00
2268;BME280;11052;43.338;25.502;2023-02-03T11:15:52;101202.00;;;9.10;100.00
2268;BME280;11052;43.338;25.502;2023-02-03T11:18:37;101194.31;;;9.01;100.00
2268;BME280;11052;43.338;25.502;2023-02-03T11:21:10;101197.88;;;8.88;100.00
2268;BME280;11052;43.338;25.502;2023-02-03T11:23:45;101193.00;;;8.56;100.00
2268;BME280;11052;43.338;25.502;2023-02-03T11:26:14;101200.06;;;8.23;100.00
2268;BME280;11052;43.338;25.502;2023-02-03T11:28:47;101195.88;;;8.03;100.00
2268;BME280;11052;43.338;25.502;2023-02-03T11:31:21;101189.00;;;8.00;100.00
2268;BME280;11052;43.338;25.502;2023-02-03T11:33:54;101186.47;;;7.89;100.00
2268;BME280;11052;43.338;25.502;2023-02-03T11:36:25;101184.69;;;8.02;100.00
2268;BME280;11052;43.338;25.502;2023-02-03T11:41:52;101189.00;;;8.03;100.00
2268;BME280;11052;43.338;25.502;2023-02-03T11:44:22;101176.97;;;7.98;100.00
2268;BME280;11052;43.338;25.502;2023-02-03T11:46:53;101172.56;;;8.18;100.00
2268;BME280;11052;43.338;25.502;2023-02-03T11:49:55;101170.81;;;8.21;100.00
2268;BME280;11052;43.338;25.502;2023-02-03T11:52:47;101178.63;;;8.08;100.00
2268;BME280;11052;43.338;25.502;2023-02-03T11:55:24;101176.22;;;7.79;100.00
2268;BME280;11052;43.338;25.502;2023-02-03T11:58:05;101168.53;;;7.67;100.00
2268;BME280;11052;43.338;25.502;2023-02-03T12:00:36;101168.53;;;7.68;100.00
2268;BME280;11052;43.338;25.502;2023-02-03T12:03:24;101168.53;;;7.67;100.00
2268;BME280;11052;43.338;25.502;2023-02-03T12:06:15;101159.13;;;7.58;100.00
2268;BME280;11052;43.338;25.502;2023-02-03T12:09:00;101170.31;;;7.55;100.00
2268;BME280;11052;43.338;25.502;2023-02-03T12:11:43;101163.47;;;7.45;100.00
2268;BME280;11052;43.338;25.502;2023-02-03T12:14:23;101158.28;;;7.54;100.00
2268;BME280;11052;43.338;25.502;2023-02-03T12:17:13;101161.66;;;7.67;100.00
2268;BME280;11052;43.338;25.502;2023-02-03T12:19:59;101163.28;;;7.82;100.00
2268;BME280;11052;43.338;25.502;2023-02-03T12:22:34;101157.16;;;8.01;100.00
2268;BME280;11052;43.338;25.502;2023-02-03T12:25:08;101152.78;;;8.14;100.00
2268;BME280;11052;43.338;25.502;2023-02-03T12:27:49;101153.63;;;8.14;100.00
2268;BME280;11052;43.338;25.502;2023-02-03T12:30:24;101150.22;;;8.09;100.00
2268;BME280;11052;43.338;25.502;2023-02-03T12:32:56;101151.97;;;8.07;100.00
2268;BME280;11052;43.338;25.502;2023-02-03T12:35:31;101155.38;;;8.12;100.00
2268;BME280;11052;43.338;25.502;2023-02-03T12:38:05;101155.38;;;8.12;100.00
2268;BME280;11052;43.338;25.502;2023-02-03T12:40:39;101153.63;;;8.14;100.00
2268;BME280;11052;43.338;25.502;2023-02-03T12:43:20;101155.44;;;8.03;100.00
2268;BME280;11052;43.338;25.502;2023-02-03T12:45:53;101151.91;;;8.16;100.00
2268;BME280;11052;43.338;25.502;2023-02-03T12:48:23;101142.47;;;8.09;100.00
2268;BME280;11052;43.338;25.502;2023-02-03T12:50:55;101150.19;;;8.14;100.00
2268;BME280;11052;43.338;25.502;2023-02-03T12:53:28;101146.03;;;7.93;100.00
2268;BME280;11052;43.338;25.502;2023-02-03T12:56:01;101157.19;;;7.97;100.00
2268;BME280;11052;43.338;25.502;2023-02-03T12:58:32;101156.34;;;7.93;100.00
2268;BME280;11052;43.338;25.502;2023-02-03T13:01:04;101160.69;;;7.82;100.00
2268;BME280;11052;43.338;25.502;2023-02-03T13:03:38;101157.34;;;7.68;100.00
2268;BME280;11052;43.338;25.502;2023-02-03T13:06:13;101160.81;;;7.64;100.00
2268;BME280;11052;43.338;25.502;2023-02-03T13:08:49;101151.38;;;7.56;100.00
2268;BME280;11052;43.338;25.502;2023-02-03T13:11:23;101154.00;;;7.47;100.00
2268;BME280;11052;43.338;25.502;2023-02-03T13:13:57;101148.84;;;7.49;100.00